sensor_id;sensor_type;location;lat;lon;timestamp;temperature;humidity
19248;DHT22;9758;48.640;8.148;2024-01-30T00:00:00;9.10;58.50
19248;DHT22;9758;48.640;8.148;2024-01-30T00:02:30;9.10;58.50
19248;DHT22;9758;48.640;8.148;2024-01-30T00:04:57;9.10;58.50
19248;DHT22;9758;48.640;8.148;2024-01-30T00:07:24;9.10;58.50
19248;DHT22;9758;48.640;8.148;2024-01-30T00:09:51;9.20;58.50
19248;DHT22;9758;48.640;8.148;2024-01-30T00:12:17;9.20;58.50
19248;DHT22;9758;48.640;8.148;2024-01-30T00:14:44;9.20;58.50
19248;DHT22;9758;48.640;8.148;2024-01-30T00:17:11;9.20;58.40
19248;DHT22;9758;48.640;8.148;2024-01-30T00:19:41;9.20;58.40
19248;DHT22;9758;48.640;8.148;2024-01-30T00:22:08;9.10;58.40
19248;DHT22;9758;48.640;8.148;2024-01-30T00:24:35;9.10;58.40
19248;DHT22;9758;48.640;8.148;2024-01-30T00:27:02;9.20;58.40
19248;DHT22;9758;48.640;8.148;2024-01-30T00:29:29;9.10;58.40
19248;DHT22;9758;48.640;8.148;2024-01-30T00:31:59;9.20;58.40
19248;DHT22;9758;48.640;8.148;2024-01-30T00:34:26;9.20;58.40
19248;DHT22;9758;48.640;8.148;2024-01-30T00:36:54;9.10;58.30
19248;DHT22;9758;48.640;8.148;2024-01-30T00:39:20;9.20;58.40
19248;DHT22;9758;48.640;8.148;2024-01-30T00:41:47;9.20;58.40
19248;DHT22;9758;48.640;8.148;2024-01-30T00:44:14;9.20;58.40
19248;DHT22;9758;48.640;8.148;2024-01-30T00:46:41;9.10;58.40
19248;DHT22;9758;48.640;8.148;2024-01-30T00:49:07;9.20;58.40
19248;DHT22;9758;48.640;8.148;2024-01-30T00:51:34;9.20;58.30
19248;DHT22;9758;48.640;8.148;2024-01-30T00:54:03;9.20;58.30
19248;DHT22;9758;48.640;8.148;2024-01-30T00:56:31;9.10;58.30
19248;DHT22;9758;48.640;8.148;2024-01-30T00:58:58;9.10;58.30
19248;DHT22;9758;48.640;8.148;2024-01-30T01:01:25;9.10;58.40
19248;DHT22;9758;48.640;8.148;2024-01-30T01:03:52;9.10;58.40
19248;DHT22;9758;48.640;8.148;2024-01-30T01:06:18;9.10;58.30
19248;DHT22;9758;48.640;8.148;2024-01-30T01:08:45;9.10;58.30
19248;DHT22;9758;48.640;8.148;2024-01-30T01:11:13;9.10;58.30
19248;DHT22;9758;48.640;8.148;2024-01-30T01:13:40;9.10;58.30
19248;DHT22;9758;48.640;8.148;2024-01-30T01:16:37;9.10;58.30
19248;DHT22;9758;48.640;8.148;2024-01-30T01:19:03;9.00;58.30
19248;DHT22;9758;48.640;8.148;2024-01-30T01:21:30;9.00;58.30
19248;DHT22;9758;48.640;8.148;2024-01-30T01:23:57;9.00;58.30
19248;DHT22;9758;48.640;8.148;2024-01-30T01:26:25;9.00;58.30
19248;DHT22;9758;48.640;8.148;2024-01-30T01:28:52;9.00;58.30
19248;DHT22;9758;48.640;8.148;2024-01-30T01:31:18;9.00;58.30
19248;DHT22;9758;48.640;8.148;2024-01-30T01:33:48;9.00;58.30
19248;DHT22;9758;48.640;8.148;2024-01-30T01:36:14;8.90;58.30
19248;DHT22;9758;48.640;8.148;2024-01-30T01:38:41;8.90;58.30
19248;DHT22;9758;48.640;8.148;2024-01-30T01:41:08;8.90;58.30
19248;DHT22;9758;48.640;8.148;2024-01-30T01:43:36;8.80;58.30
19248;DHT22;9758;48.640;8.148;2024-01-30T01:46:03;8.80;58.30
19248;DHT22;9758;48.640;8.148;2024-01-30T01:48:30;8.70;58.30
19248;DHT22;9758;48.640;8.148;2024-01-30T01:50:57;8.70;58.40
19248;DHT22;9758;48.640;8.148;2024-01-30T01:53:25;8.60;58.40
19248;DHT22;9758;48.640;8.148;2024-01-30T01:55:54;8.60;58.40
19248;DHT22;9758;48.640;8.148;2024-01-30T01:58:29;8.60;58.40
19248;DHT22;9758;48.640;8.148;2024-01-30T02:01:00;8.60;58.40
19248;DHT22;9758;48.640;8.148;2024-01-30T02:03:33;8.50;58.40
19248;DHT22;9758;48.640;8.148;2024-01-30T02:06:02;8.50;58.40
19248;DHT22;9758;48.640;8.148;2024-01-30T02:08:29;8.50;58.40
19248;DHT22;9758;48.640;8.148;2024-01-30T02:10:56;8.50;58.50
19248;DHT22;9758;48.640;8.148;2024-01-30T02:13:23;8.40;58.50
19248;DHT22;9758;48.640;8.148;2024-01-30T02:15:50;8.40;58.50
19248;DHT22;9758;48.640;8.148;2024-01-30T02:18:19;8.40;58.50
19248;DHT22;9758;48.640;8.148;2024-01-30T02:20:46;8.40;58.50
19248;DHT22;9758;48.640;8.148;2024-01-30T02:23:15;8.30;58.50
19248;DHT22;9758;48.640;8.148;2024-01-30T02:25:43;8.30;58.60
19248;DHT22;9758;48.640;8.148;2024-01-30T02:28:10;8.30;58.60
19248;DHT22;9758;48.640;8.148;2024-01-30T02:30:38;8.30;58.60
19248;DHT22;9758;48.640;8.148;2024-01-30T02:33:05;8.20;58.60
19248;DHT22;9758;48.640;8.148;2024-01-30T02:35:32;8.20;59.20
19248;DHT22;9758;48.640;8.148;2024-01-30T02:37:59;8.20;58.60
19248;DHT22;9758;48.640;8.148;2024-01-30T02:40:27;8.20;58.70
19248;DHT22;9758;48.640;8.148;2024-01-30T02:42:53;8.20;58.60
19248;DHT22;9758;48.640;8.148;2024-01-30T02:45:20;8.20;58.60
19248;DHT22;9758;48.640;8.148;2024-01-30T02:47:47;8.10;58.60
19248;DHT22;9758;48.640;8.148;2024-01-30T02:50:15;8.10;58.70
19248;DHT22;9758;48.640;8.148;2024-01-30T02:52:42;8.10;58.70
19248;DHT22;9758;48.640;8.148;2024-01-30T02:55:09;8.10;58.70
19248;DHT22;9758;48.640;8.148;2024-01-30T02:57:37;8.00;58.80
19248;DHT22;9758;48.640;8.148;2024-01-30T03:00:05;8.00;58.80
19248;DHT22;9758;48.640;8.148;2024-01-30T03:02:35;8.00;58.80
19248;DHT22;9758;48.640;8.148;2024-01-30T03:05:03;8.10;58.90
19248;DHT22;9758;48.640;8.148;2024-01-30T03:07:30;8.00;58.70
19248;DHT22;9758;48.640;8.148;2024-01-30T03:09:56;8.00;58.80
19248;DHT22;9758;48.640;8.148;2024-01-30T03:12:23;8.00;58.80
19248;DHT22;9758;48.640;8.148;2024-01-30T03:14:51;8.00;58.90
19248;DHT22;9758;48.640;8.148;2024-01-30T03:17:18;8.00;58.80
19248;DHT22;9758;48.640;8.148;2024-01-30T03:19:45;8.00;58.90
19248;DHT22;9758;48.640;8.148;2024-01-30T03:22:11;8.00;58.90
19248;DHT22;9758;48.640;8.148;2024-01-30T03:24:38;7.90;58.90
19248;DHT22;9758;48.640;8.148;2024-01-30T03:27:05;8.00;59.00
19248;DHT22;9758;48.640;8.148;2024-01-30T03:29:32;8.00;59.00
19248;DHT22;9758;48.640;8.148;2024-01-30T03:32:00;7.90;59.00
19248;DHT22;9758;48.640;8.148;2024-01-30T03:34:30;8.00;59.00
19248;DHT22;9758;48.640;8.148;2024-01-30T03:37:00;8.00;59.00
19248;DHT22;9758;48.640;8.148;2024-01-30T03:39:27;8.00;59.00
19248;DHT22;9758;48.640;8.148;2024-01-30T03:42:04;8.00;58.90
19248;DHT22;9758;48.640;8.148;2024-01-30T03:44:36;8.10;59.00
19248;DHT22;9758;48.640;8.148;2024-01-30T03:47:05;8.10;59.00
19248;DHT22;9758;48.640;8.148;2024-01-30T03:49:32;8.10;58.90
19248;DHT22;9758;48.640;8.148;2024-01-30T03:51:59;8.20;58.90
19248;DHT22;9758;48.640;8.148;2024-01-30T03:54:25;8.20;58.90
19248;DHT22;9758;48.640;8.148;2024-01-30T03:56:52;8.20;58.90
19248;DHT22;9758;48.640;8.148;2024-01-30T03:59:19;8.20;58.80
19248;DHT22;9758;48.640;8.148;2024-01-30T04:01:49;8.30;58.90
19248;DHT22;9758;48.640;8.148;2024-01-30T04:04:17;8.20;58.80
19248;DHT22;9758;48.640;8.148;2024-01-30T04:06:44;8.30;58.80
19248;DHT22;9758;48.640;8.148;2024-01-30T04:09:11;8.30;58.80
19248;DHT22;9758;48.640;8.148;2024-01-30T04:11:38;8.30;58.80
19248;DHT22;9758;48.640;8.148;2024-01-30T04:14:05;8.30;58.80
19248;DHT22;9758;48.640;8.148;2024-01-30T04:16:33;8.30;58.80
19248;DHT22;9758;48.640;8.148;2024-01-30T04:19:00;8.40;58.90
19248;DHT22;9758;48.640;8.148;2024-01-30T04:21:28;8.40;58.90
19248;DHT22;9758;48.640;8.148;2024-01-30T04:23:54;8.40;58.80
19248;DHT22;9758;48.640;8.148;2024-01-30T04:26:21;8.50;58.80
19248;DHT22;9758;48.640;8.148;2024-01-30T04:28:49;8.50;58.80
19248;DHT22;9758;48.640;8.148;2024-01-30T04:31:15;8.60;58.80
19248;DHT22;9758;48.640;8.148;2024-01-30T04:33:42;8.60;58.80
19248;DHT22;9758;48.640;8.148;2024-01-30T04:36:09;8.60;58.70
19248;DHT22;9758;48.640;8.148;2024-01-30T04:38:38;8.70;58.70
19248;DHT22;9758;48.640;8.148;2024-01-30T04:41:04;8.70;58.70
19248;DHT22;9758;48.640;8.148;2024-01-30T04:43:31;8.70;58.50
19248;DHT22;9758;48.640;8.148;2024-01-30T04:45:58;8.70;58.60
19248;DHT22;9758;48.640;8.148;2024-01-30T04:48:24;8.80;58.60
19248;DHT22;9758;48.640;8.148;2024-01-30T04:50:51;8.80;58.60
19248;DHT22;9758;48.640;8.148;2024-01-30T04:53:18;8.80;58.50
19248;DHT22;9758;48.640;8.148;2024-01-30T04:55:46;8.80;58.40
19248;DHT22;9758;48.640;8.148;2024-01-30T04:58:13;8.90;58.50
19248;DHT22;9758;48.640;8.148;2024-01-30T05:00:40;8.90;58.50
19248;DHT22;9758;48.640;8.148;2024-01-30T05:03:07;8.90;58.40
19248;DHT22;9758;48.640;8.148;2024-01-30T05:05:33;8.90;58.40
19248;DHT22;9758;48.640;8.148;2024-01-30T05:08:00;8.90;58.30
19248;DHT22;9758;48.640;8.148;2024-01-30T05:10:27;8.90;58.40
19248;DHT22;9758;48.640;8.148;2024-01-30T05:12:56;8.90;58.30
19248;DHT22;9758;48.640;8.148;2024-01-30T05:15:23;9.00;58.30
19248;DHT22;9758;48.640;8.148;2024-01-30T05:17:50;9.00;58.30
19248;DHT22;9758;48.640;8.148;2024-01-30T05:20:17;9.00;58.30
19248;DHT22;9758;48.640;8.148;2024-01-30T05:22:43;9.00;58.30
19248;DHT22;9758;48.640;8.148;2024-01-30T05:25:12;8.90;58.30
19248;DHT22;9758;48.640;8.148;2024-01-30T05:27:39;8.90;58.30
19248;DHT22;9758;48.640;8.148;2024-01-30T05:30:08;8.90;58.30
19248;DHT22;9758;48.640;8.148;2024-01-30T05:32:35;8.90;58.30
19248;DHT22;9758;48.640;8.148;2024-01-30T05:35:02;8.90;58.30
19248;DHT22;9758;48.640;8.148;2024-01-30T05:37:29;8.90;58.30
19248;DHT22;9758;48.640;8.148;2024-01-30T05:39:56;8.80;58.30
19248;DHT22;9758;48.640;8.148;2024-01-30T05:42:23;8.80;58.30
19248;DHT22;9758;48.640;8.148;2024-01-30T05:44:50;8.80;58.30
19248;DHT22;9758;48.640;8.148;2024-01-30T05:47:18;8.80;58.30
19248;DHT22;9758;48.640;8.148;2024-01-30T05:49:44;8.70;58.30
19248;DHT22;9758;48.640;8.148;2024-01-30T05:52:13;8.70;58.30
19248;DHT22;9758;48.640;8.148;2024-01-30T05:54:41;8.70;58.40
19248;DHT22;9758;48.640;8.148;2024-01-30T05:57:08;8.70;58.30
19248;DHT22;9758;48.640;8.148;2024-01-30T05:59:35;8.70;58.40
19248;DHT22;9758;48.640;8.148;2024-01-30T06:02:02;8.70;58.30
19248;DHT22;9758;48.640;8.148;2024-01-30T06:04:31;8.70;58.30
19248;DHT22;9758;48.640;8.148;2024-01-30T06:06:57;8.70;58.30
19248;DHT22;9758;48.640;8.148;2024-01-30T06:09:27;8.70;58.30
19248;DHT22;9758;48.640;8.148;2024-01-30T06:11:53;8.60;58.30
19248;DHT22;9758;48.640;8.148;2024-01-30T06:14:20;8.60;58.40
19248;DHT22;9758;48.640;8.148;2024-01-30T06:16:47;8.60;58.40
19248;DHT22;9758;48.640;8.148;2024-01-30T06:19:14;8.60;58.40
19248;DHT22;9758;48.640;8.148;2024-01-30T06:21:42;8.60;58.50
19248;DHT22;9758;48.640;8.148;2024-01-30T06:24:08;8.50;58.40
19248;DHT22;9758;48.640;8.148;2024-01-30T06:26:35;8.50;58.40
19248;DHT22;9758;48.640;8.148;2024-01-30T06:29:02;8.50;58.50
19248;DHT22;9758;48.640;8.148;2024-01-30T06:31:29;8.50;58.50
19248;DHT22;9758;48.640;8.148;2024-01-30T06:33:56;8.50;58.50
19248;DHT22;9758;48.640;8.148;2024-01-30T06:36:23;8.60;58.50
19248;DHT22;9758;48.640;8.148;2024-01-30T06:38:51;8.50;58.40
19248;DHT22;9758;48.640;8.148;2024-01-30T06:41:18;8.60;59.10
19248;DHT22;9758;48.640;8.148;2024-01-30T06:43:44;8.60;58.50
19248;DHT22;9758;48.640;8.148;2024-01-30T06:46:11;8.70;58.50
19248;DHT22;9758;48.640;8.148;2024-01-30T06:48:38;8.70;58.50
19248;DHT22;9758;48.640;8.148;2024-01-30T06:51:06;8.80;58.50
19248;DHT22;9758;48.640;8.148;2024-01-30T06:53:32;8.80;58.40
19248;DHT22;9758;48.640;8.148;2024-01-30T06:56:01;8.90;58.40
19248;DHT22;9758;48.640;8.148;2024-01-30T06:58:27;9.00;58.40
19248;DHT22;9758;48.640;8.148;2024-01-30T07:00:54;9.00;58.30
19248;DHT22;9758;48.640;8.148;2024-01-30T07:03:21;9.10;58.30
19248;DHT22;9758;48.640;8.148;2024-01-30T07:05:48;9.10;58.30
19248;DHT22;9758;48.640;8.148;2024-01-30T07:08:15;9.10;58.30
19248;DHT22;9758;48.640;8.148;2024-01-30T07:10:43;9.20;58.30
19248;DHT22;9758;48.640;8.148;2024-01-30T07:13:11;9.20;58.20
19248;DHT22;9758;48.640;8.148;2024-01-30T07:15:38;9.20;58.20
19248;DHT22;9758;48.640;8.148;2024-01-30T07:18:05;9.40;58.20
19248;DHT22;9758;48.640;8.148;2024-01-30T07:20:33;9.40;58.70
19248;DHT22;9758;48.640;8.148;2024-01-30T07:23:00;9.40;58.10
19248;DHT22;9758;48.640;8.148;2024-01-30T07:25:28;9.50;58.10
19248;DHT22;9758;48.640;8.148;2024-01-30T07:27:55;9.50;58.10
19248;DHT22;9758;48.640;8.148;2024-01-30T07:30:24;9.50;58.10
19248;DHT22;9758;48.640;8.148;2024-01-30T07:32:51;9.50;58.10
19248;DHT22;9758;48.640;8.148;2024-01-30T07:35:17;9.60;58.20
19248;DHT22;9758;48.640;8.148;2024-01-30T07:37:44;9.60;58.10
19248;DHT22;9758;48.640;8.148;2024-01-30T07:40:11;9.50;58.10
19248;DHT22;9758;48.640;8.148;2024-01-30T07:42:38;9.60;58.20
19248;DHT22;9758;48.640;8.148;2024-01-30T07:45:05;9.60;58.20
19248;DHT22;9758;48.640;8.148;2024-01-30T07:47:33;9.60;58.20
19248;DHT22;9758;48.640;8.148;2024-01-30T07:50:00;9.60;58.20
19248;DHT22;9758;48.640;8.148;2024-01-30T07:52:27;9.60;58.20
19248;DHT22;9758;48.640;8.148;2024-01-30T07:54:53;9.60;58.20
19248;DHT22;9758;48.640;8.148;2024-01-30T07:57:20;9.70;58.20
19248;DHT22;9758;48.640;8.148;2024-01-30T07:59:47;9.70;58.30
19248;DHT22;9758;48.640;8.148;2024-01-30T08:02:14;9.70;58.30
19248;DHT22;9758;48.640;8.148;2024-01-30T08:04:42;9.70;58.30
19248;DHT22;9758;48.640;8.148;2024-01-30T08:07:09;9.70;58.30
19248;DHT22;9758;48.640;8.148;2024-01-30T08:09:36;9.80;58.30
19248;DHT22;9758;48.640;8.148;2024-01-30T08:12:03;9.80;58.30
19248;DHT22;9758;48.640;8.148;2024-01-30T08:14:30;9.80;58.30
19248;DHT22;9758;48.640;8.148;2024-01-30T08:16:56;9.90;58.30
19248;DHT22;9758;48.640;8.148;2024-01-30T08:19:23;9.90;58.30
19248;DHT22;9758;48.640;8.148;2024-01-30T08:21:51;9.90;58.30
19248;DHT22;9758;48.640;8.148;2024-01-30T08:24:18;9.90;58.30
19248;DHT22;9758;48.640;8.148;2024-01-30T08:26:45;9.90;58.30
19248;DHT22;9758;48.640;8.148;2024-01-30T08:29:11;10.00;58.30
19248;DHT22;9758;48.640;8.148;2024-01-30T08:31:38;10.10;58.50
19248;DHT22;9758;48.640;8.148;2024-01-30T08:34:05;10.20;58.40
19248;DHT22;9758;48.640;8.148;2024-01-30T08:36:32;10.40;58.40
19248;DHT22;9758;48.640;8.148;2024-01-30T08:39:00;10.40;58.20
19248;DHT22;9758;48.640;8.148;2024-01-30T08:41:27;10.60;58.10
19248;DHT22;9758;48.640;8.148;2024-01-30T08:43:55;10.70;57.90
19248;DHT22;9758;48.640;8.148;2024-01-30T08:46:21;10.90;57.90
19248;DHT22;9758;48.640;8.148;2024-01-30T08:48:48;11.10;57.80
19248;DHT22;9758;48.640;8.148;2024-01-30T08:51:15;11.20;57.70
19248;DHT22;9758;48.640;8.148;2024-01-30T08:53:42;11.30;57.30
19248;DHT22;9758;48.640;8.148;2024-01-30T08:56:10;11.50;57.40
19248;DHT22;9758;48.640;8.148;2024-01-30T08:58:37;11.60;57.40
19248;DHT22;9758;48.640;8.148;2024-01-30T09:01:04;11.70;57.20
19248;DHT22;9758;48.640;8.148;2024-01-30T09:03:32;11.80;57.20
19248;DHT22;9758;48.640;8.148;2024-01-30T09:05:59;11.90;57.00
19248;DHT22;9758;48.640;8.148;2024-01-30T09:08:26;11.90;56.90
19248;DHT22;9758;48.640;8.148;2024-01-30T09:10:52;11.90;56.80
19248;DHT22;9758;48.640;8.148;2024-01-30T09:13:21;11.90;56.90
19248;DHT22;9758;48.640;8.148;2024-01-30T09:15:48;11.80;56.80
19248;DHT22;9758;48.640;8.148;2024-01-30T09:18:15;11.80;56.90
19248;DHT22;9758;48.640;8.148;2024-01-30T09:20:41;11.80;57.10
19248;DHT22;9758;48.640;8.148;2024-01-30T09:23:08;11.70;57.00
19248;DHT22;9758;48.640;8.148;2024-01-30T09:25:35;11.70;57.20
19248;DHT22;9758;48.640;8.148;2024-01-30T09:28:31;11.70;57.30
19248;DHT22;9758;48.640;8.148;2024-01-30T09:30:58;11.80;57.30
19248;DHT22;9758;48.640;8.148;2024-01-30T09:33:24;11.90;57.40
19248;DHT22;9758;48.640;8.148;2024-01-30T09:35:51;11.90;57.40
19248;DHT22;9758;48.640;8.148;2024-01-30T09:38:17;12.10;57.30
19248;DHT22;9758;48.640;8.148;2024-01-30T09:40:45;12.20;57.30
19248;DHT22;9758;48.640;8.148;2024-01-30T09:43:18;12.30;57.30
19248;DHT22;9758;48.640;8.148;2024-01-30T09:45:50;12.40;57.00
19248;DHT22;9758;48.640;8.148;2024-01-30T09:48:17;12.60;57.00
19248;DHT22;9758;48.640;8.148;2024-01-30T09:50:43;12.60;56.80
19248;DHT22;9758;48.640;8.148;2024-01-30T09:53:11;12.70;56.60
19248;DHT22;9758;48.640;8.148;2024-01-30T09:55:43;12.80;56.70
19248;DHT22;9758;48.640;8.148;2024-01-30T09:58:09;12.80;56.50
19248;DHT22;9758;48.640;8.148;2024-01-30T10:00:36;12.80;56.50
19248;DHT22;9758;48.640;8.148;2024-01-30T10:03:05;12.70;56.50
19248;DHT22;9758;48.640;8.148;2024-01-30T10:05:31;12.70;56.60
19248;DHT22;9758;48.640;8.148;2024-01-30T10:08:01;12.70;56.70
19248;DHT22;9758;48.640;8.148;2024-01-30T10:10:28;12.80;56.80
19248;DHT22;9758;48.640;8.148;2024-01-30T10:12:55;12.80;56.70
19248;DHT22;9758;48.640;8.148;2024-01-30T10:15:21;12.90;56.80
19248;DHT22;9758;48.640;8.148;2024-01-30T10:17:49;13.00;56.80
19248;DHT22;9758;48.640;8.148;2024-01-30T10:20:17;13.10;56.80
19248;DHT22;9758;48.640;8.148;2024-01-30T10:22:44;13.20;56.70
19248;DHT22;9758;48.640;8.148;2024-01-30T10:25:11;13.30;56.60
19248;DHT22;9758;48.640;8.148;2024-01-30T10:27:39;13.40;56.60
19248;DHT22;9758;48.640;8.148;2024-01-30T10:30:07;13.50;56.50
19248;DHT22;9758;48.640;8.148;2024-01-30T10:32:34;13.60;56.50
19248;DHT22;9758;48.640;8.148;2024-01-30T10:35:01;13.70;56.20
19248;DHT22;9758;48.640;8.148;2024-01-30T10:37:31;13.70;55.70
19248;DHT22;9758;48.640;8.148;2024-01-30T10:40:02;13.80;55.60
19248;DHT22;9758;48.640;8.148;2024-01-30T10:42:31;13.80;55.70
19248;DHT22;9758;48.640;8.148;2024-01-30T10:45:02;13.80;55.80
19248;DHT22;9758;48.640;8.148;2024-01-30T10:47:34;13.80;55.40
19248;DHT22;9758;48.640;8.148;2024-01-30T10:50:02;13.80;55.50
19248;DHT22;9758;48.640;8.148;2024-01-30T10:52:31;13.70;55.90
19248;DHT22;9758;48.640;8.148;2024-01-30T10:54:58;13.80;55.90
19248;DHT22;9758;48.640;8.148;2024-01-30T10:57:26;13.70;55.10
19248;DHT22;9758;48.640;8.148;2024-01-30T10:59:56;13.70;55.30
19248;DHT22;9758;48.640;8.148;2024-01-30T11:02:24;13.70;55.40
19248;DHT22;9758;48.640;8.148;2024-01-30T11:04:57;13.70;55.50
19248;DHT22;9758;48.640;8.148;2024-01-30T11:07:25;13.70;55.80
19248;DHT22;9758;48.640;8.148;2024-01-30T11:09:54;13.70;55.70
19248;DHT22;9758;48.640;8.148;2024-01-30T11:12:26;13.80;55.10
19248;DHT22;9758;48.640;8.148;2024-01-30T11:15:05;13.80;55.60
19248;DHT22;9758;48.640;8.148;2024-01-30T11:17:42;13.80;55.80
19248;DHT22;9758;48.640;8.148;2024-01-30T11:20:10;14.00;55.90
19248;DHT22;9758;48.640;8.148;2024-01-30T11:22:41;14.10;56.00
19248;DHT22;9758;48.640;8.148;2024-01-30T11:25:13;14.20;55.90
19248;DHT22;9758;48.640;8.148;2024-01-30T11:27:41;14.40;55.70
19248;DHT22;9758;48.640;8.148;2024-01-30T11:30:08;14.50;55.40
19248;DHT22;9758;48.640;8.148;2024-01-30T11:32:35;14.60;54.90
19248;DHT22;9758;48.640;8.148;2024-01-30T11:35:03;14.80;55.40
19248;DHT22;9758;48.640;8.148;2024-01-30T11:37:31;14.90;55.30
19248;DHT22;9758;48.640;8.148;2024-01-30T11:39:58;15.00;54.80
19248;DHT22;9758;48.640;8.148;2024-01-30T11:42:27;15.00;55.00
19248;DHT22;9758;48.640;8.148;2024-01-30T11:44:55;15.00;54.60
19248;DHT22;9758;48.640;8.148;2024-01-30T11:47:22;15.00;54.40
19248;DHT22;9758;48.640;8.148;2024-01-30T11:49:49;15.00;54.70
19248;DHT22;9758;48.640;8.148;2024-01-30T11:52:16;15.00;54.60
19248;DHT22;9758;48.640;8.148;2024-01-30T11:54:43;14.80;55.10
19248;DHT22;9758;48.640;8.148;2024-01-30T11:57:10;14.70;54.70
19248;DHT22;9758;48.640;8.148;2024-01-30T11:59:38;14.60;55.00
19248;DHT22;9758;48.640;8.148;2024-01-30T12:02:05;14.50;56.00
19248;DHT22;9758;48.640;8.148;2024-01-30T12:04:31;14.40;55.50
19248;DHT22;9758;48.640;8.148;2024-01-30T12:06:58;14.40;55.60
19248;DHT22;9758;48.640;8.148;2024-01-30T12:09:25;14.30;55.40
19248;DHT22;9758;48.640;8.148;2024-01-30T12:11:53;14.30;55.60
19248;DHT22;9758;48.640;8.148;2024-01-30T12:14:20;14.30;55.80
19248;DHT22;9758;48.640;8.148;2024-01-30T12:16:52;14.30;55.70
19248;DHT22;9758;48.640;8.148;2024-01-30T12:19:22;14.40;55.70
19248;DHT22;9758;48.640;8.148;2024-01-30T12:21:54;14.40;55.60
19248;DHT22;9758;48.640;8.148;2024-01-30T12:24:21;14.40;55.70
19248;DHT22;9758;48.640;8.148;2024-01-30T12:26:48;14.40;55.40
19248;DHT22;9758;48.640;8.148;2024-01-30T12:29:15;14.40;55.40
19248;DHT22;9758;48.640;8.148;2024-01-30T12:31:42;14.40;55.20
19248;DHT22;9758;48.640;8.148;2024-01-30T12:34:13;14.40;54.80
19248;DHT22;9758;48.640;8.148;2024-01-30T12:36:41;14.40;55.00
19248;DHT22;9758;48.640;8.148;2024-01-30T12:39:11;14.30;55.30
19248;DHT22;9758;48.640;8.148;2024-01-30T12:41:38;14.40;55.50
19248;DHT22;9758;48.640;8.148;2024-01-30T12:44:05;14.40;55.50
19248;DHT22;9758;48.640;8.148;2024-01-30T12:46:32;14.40;55.10
19248;DHT22;9758;48.640;8.148;2024-01-30T12:49:00;14.40;55.40
19248;DHT22;9758;48.640;8.148;2024-01-30T12:51:28;14.40;55.30
19248;DHT22;9758;48.640;8.148;2024-01-30T12:53:55;14.50;55.50
19248;DHT22;9758;48.640;8.148;2024-01-30T12:56:22;14.60;55.20
19248;DHT22;9758;48.640;8.148;2024-01-30T12:58:49;14.70;55.50
19248;DHT22;9758;48.640;8.148;2024-01-30T13:01:16;14.80;55.50
19248;DHT22;9758;48.640;8.148;2024-01-30T13:03:42;14.90;55.00
19248;DHT22;9758;48.640;8.148;2024-01-30T13:06:09;15.00;55.30
19248;DHT22;9758;48.640;8.148;2024-01-30T13:08:37;15.10;55.00
19248;DHT22;9758;48.640;8.148;2024-01-30T13:11:04;15.10;54.90
19248;DHT22;9758;48.640;8.148;2024-01-30T13:13:31;15.10;54.90
19248;DHT22;9758;48.640;8.148;2024-01-30T13:15:58;15.10;54.70
19248;DHT22;9758;48.640;8.148;2024-01-30T13:18:25;15.00;54.60
19248;DHT22;9758;48.640;8.148;2024-01-30T13:20:51;14.90;54.60
19248;DHT22;9758;48.640;8.148;2024-01-30T13:23:18;14.90;54.50
19248;DHT22;9758;48.640;8.148;2024-01-30T13:25:46;14.80;54.60
19248;DHT22;9758;48.640;8.148;2024-01-30T13:28:23;14.80;54.60
19248;DHT22;9758;48.640;8.148;2024-01-30T13:30:51;14.70;54.40
19248;DHT22;9758;48.640;8.148;2024-01-30T13:33:17;14.60;54.90
19248;DHT22;9758;48.640;8.148;2024-01-30T13:35:44;14.60;55.10
19248;DHT22;9758;48.640;8.148;2024-01-30T13:38:11;14.60;55.20
19248;DHT22;9758;48.640;8.148;2024-01-30T13:40:39;14.60;55.20
19248;DHT22;9758;48.640;8.148;2024-01-30T13:43:07;14.60;55.20
19248;DHT22;9758;48.640;8.148;2024-01-30T13:45:33;14.60;55.10
19248;DHT22;9758;48.640;8.148;2024-01-30T13:48:00;14.60;55.00
19248;DHT22;9758;48.640;8.148;2024-01-30T13:50:28;14.60;55.00
19248;DHT22;9758;48.640;8.148;2024-01-30T13:52:55;14.60;55.60
19248;DHT22;9758;48.640;8.148;2024-01-30T13:55:22;14.50;54.90
19248;DHT22;9758;48.640;8.148;2024-01-30T13:57:49;14.60;55.10
19248;DHT22;9758;48.640;8.148;2024-01-30T14:00:17;14.60;54.80
19248;DHT22;9758;48.640;8.148;2024-01-30T14:02:44;14.50;54.90
19248;DHT22;9758;48.640;8.148;2024-01-30T14:05:11;14.50;55.00
19248;DHT22;9758;48.640;8.148;2024-01-30T14:07:38;14.50;54.90
19248;DHT22;9758;48.640;8.148;2024-01-30T14:10:06;14.40;55.00
19248;DHT22;9758;48.640;8.148;2024-01-30T14:12:33;14.40;55.00
19248;DHT22;9758;48.640;8.148;2024-01-30T14:15:00;14.40;55.00
19248;DHT22;9758;48.640;8.148;2024-01-30T14:17:28;14.40;55.10
19248;DHT22;9758;48.640;8.148;2024-01-30T14:19:55;14.40;55.10
19248;DHT22;9758;48.640;8.148;2024-01-30T14:22:22;14.40;55.30
19248;DHT22;9758;48.640;8.148;2024-01-30T14:24:48;14.50;55.20
19248;DHT22;9758;48.640;8.148;2024-01-30T14:27:17;14.50;55.10
19248;DHT22;9758;48.640;8.148;2024-01-30T14:29:45;14.50;54.90
19248;DHT22;9758;48.640;8.148;2024-01-30T14:32:12;14.50;55.00
19248;DHT22;9758;48.640;8.148;2024-01-30T14:34:40;14.50;55.10
19248;DHT22;9758;48.640;8.148;2024-01-30T14:37:07;14.50;55.10
19248;DHT22;9758;48.640;8.148;2024-01-30T14:39:34;14.60;55.10
19248;DHT22;9758;48.640;8.148;2024-01-30T14:42:02;14.60;55.20
19248;DHT22;9758;48.640;8.148;2024-01-30T14:44:29;14.60;55.20
19248;DHT22;9758;48.640;8.148;2024-01-30T14:46:57;14.60;55.00
19248;DHT22;9758;48.640;8.148;2024-01-30T14:49:23;14.60;55.00
19248;DHT22;9758;48.640;8.148;2024-01-30T14:51:52;14.60;55.00
19248;DHT22;9758;48.640;8.148;2024-01-30T14:54:18;14.60;55.10
19248;DHT22;9758;48.640;8.148;2024-01-30T14:56:46;14.60;55.00
19248;DHT22;9758;48.640;8.148;2024-01-30T14:59:13;14.60;55.10
19248;DHT22;9758;48.640;8.148;2024-01-30T15:01:40;14.60;55.00
19248;DHT22;9758;48.640;8.148;2024-01-30T15:04:06;14.60;55.10
19248;DHT22;9758;48.640;8.148;2024-01-30T15:06:33;14.60;55.10
19248;DHT22;9758;48.640;8.148;2024-01-30T15:09:02;14.60;55.20
19248;DHT22;9758;48.640;8.148;2024-01-30T15:11:29;14.50;55.20
19248;DHT22;9758;48.640;8.148;2024-01-30T15:13:56;14.50;55.20
19248;DHT22;9758;48.640;8.148;2024-01-30T15:16:22;14.50;55.20
19248;DHT22;9758;48.640;8.148;2024-01-30T15:18:49;14.40;55.20
19248;DHT22;9758;48.640;8.148;2024-01-30T15:21:16;14.40;55.30
19248;DHT22;9758;48.640;8.148;2024-01-30T15:23:45;14.40;55.30
19248;DHT22;9758;48.640;8.148;2024-01-30T15:26:14;14.30;55.20
19248;DHT22;9758;48.640;8.148;2024-01-30T15:28:41;14.30;55.30
19248;DHT22;9758;48.640;8.148;2024-01-30T15:31:08;14.30;55.30
19248;DHT22;9758;48.640;8.148;2024-01-30T15:33:35;14.30;55.30
19248;DHT22;9758;48.640;8.148;2024-01-30T15:36:03;14.30;55.40
19248;DHT22;9758;48.640;8.148;2024-01-30T15:38:29;14.20;55.40
19248;DHT22;9758;48.640;8.148;2024-01-30T15:40:56;14.20;55.40
19248;DHT22;9758;48.640;8.148;2024-01-30T15:43:25;14.20;55.50
19248;DHT22;9758;48.640;8.148;2024-01-30T15:45:51;14.10;55.40
19248;DHT22;9758;48.640;8.148;2024-01-30T15:48:18;14.10;55.50
19248;DHT22;9758;48.640;8.148;2024-01-30T15:50:45;14.10;55.60
19248;DHT22;9758;48.640;8.148;2024-01-30T15:53:12;14.00;55.60
19248;DHT22;9758;48.640;8.148;2024-01-30T15:55:38;14.00;55.60